createdAt,value
2023-03-15T00:00:18.764Z,4.26
2023-03-15T00:01:18.901Z,4.26
2023-03-15T00:02:18.771Z,4.32
2023-03-15T00:03:18.768Z,4.33
2023-03-15T00:04:18.754Z,4.32
2023-03-15T00:05:18.765Z,4.29
2023-03-15T00:06:18.695Z,4.32
2023-03-15T00:07:19.033Z,4.29
2023-03-15T00:08:18.681Z,4.29
2023-03-15T00:09:18.743Z,4.29
2023-03-15T00:10:18.714Z,4.29
2023-03-15T00:11:18.733Z,4.29
2023-03-15T00:12:18.801Z,4.29
2023-03-15T00:13:18.654Z,4.28
2023-03-15T00:14:18.734Z,4.26
2023-03-15T00:15:18.622Z,4.28
2023-03-15T00:16:18.873Z,4.25
2023-03-15T00:17:18.717Z,4.24
2023-03-15T00:18:18.748Z,4.24
2023-03-15T00:19:18.580Z,4.24
2023-03-15T00:20:18.562Z,4.22
2023-03-15T00:21:18.563Z,4.25
2023-03-15T00:22:18.635Z,4.22
2023-03-15T00:23:18.717Z,4.24
2023-03-15T00:24:18.726Z,4.24
2023-03-15T00:25:18.507Z,4.22
2023-03-15T00:26:18.610Z,4.24
2023-03-15T00:27:18.527Z,4.25
2023-03-15T00:28:18.578Z,4.26
2023-03-15T00:29:18.485Z,4.26
2023-03-15T00:30:18.740Z,4.25
2023-03-15T00:31:18.580Z,4.24
2023-03-15T00:32:18.454Z,4.25
2023-03-15T00:33:18.646Z,4.25
2023-03-15T00:34:18.463Z,4.24
2023-03-15T00:35:18.752Z,4.22
2023-03-15T00:36:19.004Z,4.16
2023-03-15T00:37:18.416Z,4.12
2023-03-15T00:38:18.440Z,4.07
2023-03-15T00:39:18.368Z,4.01
2023-03-15T00:40:18.707Z,3.98
2023-03-15T00:41:18.497Z,3.94
2023-03-15T00:42:18.395Z,3.90
2023-03-15T00:43:18.348Z,3.86
2023-03-15T00:44:18.338Z,3.83
2023-03-15T00:45:18.536Z,3.78
2023-03-15T00:46:18.513Z,3.72
2023-03-15T00:47:18.407Z,3.70
2023-03-15T00:48:18.458Z,3.64
2023-03-15T00:49:18.453Z,3.62
2023-03-15T00:50:18.402Z,3.58
2023-03-15T00:51:18.340Z,3.58
2023-03-15T00:52:18.484Z,3.57
2023-03-15T00:53:18.561Z,3.50
2023-03-15T00:54:18.262Z,3.47
2023-03-15T00:55:18.400Z,3.47
2023-03-15T00:56:18.369Z,3.46
2023-03-15T00:57:18.398Z,3.42
2023-03-15T00:58:18.408Z,3.39
2023-03-15T00:59:18.420Z,3.36
2023-03-15T01:00:18.160Z,3.34
2023-03-15T01:01:18.480Z,3.34
2023-03-15T01:02:18.303Z,3.33
2023-03-15T01:03:18.169Z,3.31
2023-03-15T01:04:18.301Z,3.30
2023-03-15T01:05:18.323Z,3.30
2023-03-15T01:06:18.253Z,3.27
2023-03-15T01:07:18.232Z,3.28
2023-03-15T01:08:18.106Z,3.28
2023-03-15T01:09:18.115Z,3.27
2023-03-15T01:10:18.140Z,3.24
2023-03-15T01:11:18.053Z,3.21
2023-03-15T01:12:18.052Z,3.21
2023-03-15T01:13:18.083Z,3.23
2023-03-15T01:14:18.228Z,3.20
2023-03-15T01:15:18.198Z,3.20
2023-03-15T01:16:18.114Z,3.18
2023-03-15T01:17:18.013Z,3.12
2023-03-15T01:18:18.106Z,3.07
2023-03-15T01:19:18.164Z,3.06
2023-03-15T01:20:18.068Z,3.07
2023-03-15T01:21:18.134Z,3.03
2023-03-15T01:22:18.038Z,3.03
2023-03-15T01:23:18.062Z,3.00
2023-03-15T01:24:17.986Z,2.94
2023-03-15T01:25:17.986Z,2.92
2023-03-15T01:26:17.943Z,2.91
2023-03-15T01:27:18.015Z,2.88
2023-03-15T01:28:18.037Z,2.82
2023-03-15T01:29:17.876Z,2.79
2023-03-15T01:30:17.882Z,2.79
2023-03-15T01:31:17.880Z,2.76
2023-03-15T01:32:17.861Z,2.73
2023-03-15T01:33:17.836Z,2.73
2023-03-15T01:34:18.266Z,2.74
2023-03-15T01:35:17.809Z,2.70
2023-03-15T01:36:17.820Z,2.70
2023-03-15T01:37:17.798Z,2.69
2023-03-15T01:38:17.843Z,2.70
2023-03-15T01:39:17.987Z,2.69
2023-03-15T01:40:17.844Z,2.66
2023-03-15T01:41:17.741Z,2.64
2023-03-15T01:42:17.909Z,2.63
2023-03-15T01:43:17.713Z,2.58
2023-03-15T01:44:17.721Z,2.58
2023-03-15T01:45:17.977Z,2.55
2023-03-15T01:46:17.868Z,2.55
2023-03-15T01:47:17.781Z,2.53
2023-03-15T01:48:17.932Z,2.51
2023-03-15T01:49:17.693Z,2.48
2023-03-15T01:50:17.681Z,2.46
2023-03-15T01:51:18.114Z,2.44
2023-03-15T01:52:17.854Z,2.45
2023-03-15T01:53:17.657Z,2.37
2023-03-15T01:54:17.650Z,2.38
2023-03-15T01:55:17.631Z,2.35
2023-03-15T01:56:17.620Z,2.33
2023-03-15T01:57:17.673Z,2.33
2023-03-15T01:58:17.758Z,2.31
2023-03-15T01:59:17.664Z,2.31
2023-03-15T02:00:17.570Z,2.34
2023-03-15T02:01:17.679Z,2.34
2023-03-15T02:02:17.716Z,2.34
2023-03-15T02:03:17.957Z,2.35
2023-03-15T02:04:17.653Z,2.35
2023-03-15T02:05:17.930Z,2.37
2023-03-15T02:06:17.520Z,2.40
2023-03-15T02:07:17.594Z,2.40
2023-03-15T02:08:17.705Z,2.41
2023-03-15T02:09:17.570Z,2.44
2023-03-15T02:10:17.550Z,2.46
2023-03-15T02:11:17.541Z,2.49
2023-03-15T02:12:17.652Z,2.52
2023-03-15T02:13:17.679Z,2.52
2023-03-15T02:14:17.444Z,2.53
2023-03-15T02:15:17.470Z,2.56
2023-03-15T02:16:17.814Z,2.55
2023-03-15T02:17:17.607Z,2.59
2023-03-15T02:18:17.437Z,2.59
2023-03-15T02:19:17.485Z,2.61
2023-03-15T02:20:17.398Z,2.64
2023-03-15T02:21:17.580Z,2.64
2023-03-15T02:22:17.417Z,2.69
2023-03-15T02:23:17.412Z,2.69
2023-03-15T02:24:17.339Z,2.69
2023-03-15T02:25:17.354Z,2.70
2023-03-15T02:26:17.531Z,2.73
2023-03-15T02:27:17.611Z,2.77
2023-03-15T02:28:17.387Z,2.76
2023-03-15T02:29:17.563Z,2.77
2023-03-15T02:30:17.447Z,2.81
2023-03-15T02:31:17.315Z,2.81
2023-03-15T02:32:17.432Z,2.81
2023-03-15T02:33:17.278Z,2.82
2023-03-15T02:34:17.297Z,2.82
2023-03-15T02:35:17.357Z,2.85
2023-03-15T02:36:17.242Z,2.82
2023-03-15T02:37:17.256Z,2.84
2023-03-15T02:38:17.380Z,2.84
2023-03-15T02:39:17.244Z,2.85
2023-03-15T02:40:17.218Z,2.85
2023-03-15T02:41:17.526Z,2.84
2023-03-15T02:42:17.239Z,2.84
2023-03-15T02:43:17.336Z,2.84
2023-03-15T02:44:17.180Z,2.84
2023-03-15T02:45:17.326Z,2.84
2023-03-15T02:46:17.538Z,2.87
2023-03-15T02:47:17.380Z,2.84
2023-03-15T02:48:17.746Z,2.85
2023-03-15T02:49:17.135Z,2.87
2023-03-15T02:50:17.107Z,2.87
2023-03-15T02:51:17.224Z,2.84
2023-03-15T02:52:17.384Z,2.84
2023-03-15T02:53:17.357Z,2.82
2023-03-15T02:54:17.084Z,2.84
2023-03-15T02:55:17.221Z,2.81
2023-03-15T02:56:17.145Z,2.81
2023-03-15T02:57:17.201Z,2.84
2023-03-15T02:58:17.274Z,2.81
2023-03-15T02:59:17.013Z,2.81
2023-03-15T03:00:16.994Z,2.81
2023-03-15T03:01:17.244Z,2.81
2023-03-15T03:02:17.051Z,2.81
2023-03-15T03:03:17.169Z,2.77
2023-03-15T03:04:17.112Z,2.77
2023-03-15T03:05:16.959Z,2.79
2023-03-15T03:06:17.114Z,2.79
2023-03-15T03:07:16.982Z,2.77
2023-03-15T03:08:16.915Z,2.81
2023-03-15T03:09:17.097Z,2.82
2023-03-15T03:10:17.446Z,2.82
2023-03-15T03:11:17.101Z,2.84
2023-03-15T03:12:17.061Z,2.84
2023-03-15T03:13:16.894Z,2.85
2023-03-15T03:14:17.022Z,2.82
2023-03-15T03:15:16.884Z,2.82
2023-03-15T03:16:16.922Z,2.82
2023-03-15T03:17:17.000Z,2.82
2023-03-15T03:18:16.869Z,2.85
2023-03-15T03:19:16.937Z,2.84
2023-03-15T03:20:17.107Z,2.81
2023-03-15T03:21:16.814Z,2.76
2023-03-15T03:22:16.856Z,2.73
2023-03-15T03:23:17.011Z,2.71
2023-03-15T03:24:17.007Z,2.71
2023-03-15T03:25:16.891Z,2.66
2023-03-15T03:26:17.075Z,2.66
2023-03-15T03:27:16.770Z,2.63
2023-03-15T03:28:17.058Z,2.61
2023-03-15T03:29:17.068Z,2.59
2023-03-15T03:30:16.864Z,2.59
2023-03-15T03:31:16.947Z,2.61
2023-03-15T03:32:16.985Z,2.59
2023-03-15T03:33:16.700Z,2.56
2023-03-15T03:34:16.881Z,2.56
2023-03-15T03:35:16.796Z,2.55
2023-03-15T03:36:17.633Z,2.55
2023-03-15T03:37:16.833Z,2.56
2023-03-15T03:38:16.699Z,2.56
2023-03-15T03:39:17.104Z,2.55
2023-03-15T03:40:17.363Z,2.55
2023-03-15T03:41:16.757Z,2.53
2023-03-15T03:42:16.672Z,2.52
2023-03-15T03:43:16.591Z,2.52
2023-03-15T03:44:17.021Z,2.51
2023-03-15T03:45:16.616Z,2.49
2023-03-15T03:46:16.637Z,2.49
2023-03-15T03:47:17.562Z,2.48
2023-03-15T03:48:16.551Z,2.48
2023-03-15T03:49:16.551Z,2.46
2023-03-15T03:50:16.624Z,2.49
2023-03-15T03:51:16.540Z,2.48
2023-03-15T03:52:16.504Z,2.46
2023-03-15T03:53:16.469Z,2.46
2023-03-15T03:54:17.687Z,2.48
2023-03-15T03:55:16.467Z,2.45
2023-03-15T03:56:16.547Z,2.46
2023-03-15T03:57:16.458Z,2.45
2023-03-15T03:58:16.670Z,2.48
2023-03-15T03:59:16.637Z,2.49
2023-03-15T04:00:16.828Z,2.51
2023-03-15T04:01:16.594Z,2.51
2023-03-15T04:02:16.462Z,2.51
2023-03-15T04:03:16.470Z,2.56
2023-03-15T04:04:16.638Z,2.53
2023-03-15T04:05:16.592Z,2.55
2023-03-15T04:06:16.699Z,2.53
2023-03-15T04:07:17.189Z,2.56
2023-03-15T04:08:16.949Z,2.56
2023-03-15T04:09:16.536Z,2.55
2023-03-15T04:10:16.369Z,2.59
2023-03-15T04:11:16.465Z,2.58
2023-03-15T04:12:16.549Z,2.59
2023-03-15T04:13:16.308Z,2.61
2023-03-15T04:14:16.426Z,2.59
2023-03-15T04:15:16.562Z,2.61
2023-03-15T04:16:16.884Z,2.63
2023-03-15T04:17:16.306Z,2.61
2023-03-15T04:18:16.422Z,2.61
2023-03-15T04:19:16.219Z,2.61
2023-03-15T04:20:16.355Z,2.59
2023-03-15T04:21:16.657Z,2.59
2023-03-15T04:22:16.244Z,2.58
2023-03-15T04:23:16.554Z,2.58
2023-03-15T04:24:16.379Z,2.58
2023-03-15T04:25:16.301Z,2.56
2023-03-15T04:26:16.432Z,2.56
2023-03-15T04:27:16.327Z,2.55
2023-03-15T04:28:16.190Z,2.55
2023-03-15T04:29:16.162Z,2.55
2023-03-15T04:30:16.210Z,2.53
2023-03-15T04:31:16.211Z,2.55
2023-03-15T04:32:16.111Z,2.55
2023-03-15T04:33:17.134Z,2.55
2023-03-15T04:34:16.165Z,2.55
2023-03-15T04:35:16.157Z,2.56
2023-03-15T04:36:16.224Z,2.53
2023-03-15T04:37:16.157Z,2.53
2023-03-15T04:38:16.123Z,2.53
2023-03-15T04:39:16.088Z,2.52
2023-03-15T04:40:16.079Z,2.53
2023-03-15T04:41:16.210Z,2.55
2023-03-15T04:42:16.072Z,2.55
2023-03-15T04:43:16.078Z,2.58
2023-03-15T04:44:16.004Z,2.56
2023-03-15T04:45:16.022Z,2.59
2023-03-15T04:46:16.235Z,2.63
2023-03-15T04:47:16.017Z,2.64
2023-03-15T04:48:15.986Z,2.64
2023-03-15T04:49:16.012Z,2.66
2023-03-15T04:50:16.445Z,2.69
2023-03-15T04:51:15.950Z,2.71
2023-03-15T04:52:16.013Z,2.70
2023-03-15T04:53:16.134Z,2.70
2023-03-15T04:54:16.001Z,2.73
2023-03-15T04:55:16.118Z,2.74
2023-03-15T04:56:16.544Z,2.73
2023-03-15T04:57:15.968Z,2.71
2023-03-15T04:58:16.078Z,2.71
2023-03-15T04:59:15.966Z,2.73
2023-03-15T05:00:16.020Z,2.71
2023-03-15T05:01:16.142Z,2.70
2023-03-15T05:02:16.269Z,2.70
2023-03-15T05:03:15.837Z,2.67
2023-03-15T05:04:15.860Z,2.64
2023-03-15T05:05:16.182Z,2.61
2023-03-15T05:06:15.987Z,2.56
2023-03-15T05:07:16.183Z,2.55
2023-03-15T05:08:15.937Z,2.55
2023-03-15T05:09:15.802Z,2.53
2023-03-15T05:10:16.020Z,2.53
2023-03-15T05:11:16.026Z,2.51
2023-03-15T05:12:15.994Z,2.49
2023-03-15T05:13:15.745Z,2.49
2023-03-15T05:14:15.920Z,2.51
2023-03-15T05:15:16.118Z,2.51
2023-03-15T05:16:16.030Z,2.48
2023-03-15T05:17:15.817Z,2.49
2023-03-15T05:18:15.736Z,2.48
2023-03-15T05:19:15.698Z,2.46
2023-03-15T05:20:15.657Z,2.48
2023-03-15T05:21:15.722Z,2.49
2023-03-15T05:22:15.638Z,2.48
2023-03-15T05:23:15.644Z,2.49
2023-03-15T05:24:15.712Z,2.46
2023-03-15T05:25:15.628Z,2.45
2023-03-15T05:26:15.835Z,2.46
2023-03-15T05:27:15.673Z,2.49
2023-03-15T05:28:15.626Z,2.51
2023-03-15T05:29:15.581Z,2.51
2023-03-15T05:30:15.589Z,2.55
2023-03-15T05:31:16.177Z,2.55
2023-03-15T05:32:16.365Z,2.55
2023-03-15T05:33:15.661Z,2.55
2023-03-15T05:34:15.723Z,2.56
2023-03-15T05:35:16.055Z,2.55
2023-03-15T05:36:16.066Z,2.58
2023-03-15T05:37:15.802Z,2.59
2023-03-15T05:38:15.486Z,2.61
2023-03-15T05:39:16.227Z,2.63
2023-03-15T05:40:15.647Z,2.61
2023-03-15T05:41:15.466Z,2.59
2023-03-15T05:42:15.463Z,2.61
2023-03-15T05:43:15.806Z,2.63
2023-03-15T05:44:15.420Z,2.64
2023-03-15T05:45:15.436Z,2.63
2023-03-15T05:46:15.481Z,2.63
2023-03-15T05:47:15.390Z,2.64
2023-03-15T05:48:15.368Z,2.66
2023-03-15T05:49:15.409Z,2.69
2023-03-15T05:50:15.537Z,2.67
2023-03-15T05:51:15.392Z,2.69
2023-03-15T05:52:15.416Z,2.70
2023-03-15T05:53:15.340Z,2.71
2023-03-15T05:54:15.500Z,2.71
2023-03-15T05:55:15.317Z,2.73
2023-03-15T05:56:15.309Z,2.71
2023-03-15T05:57:15.291Z,2.71
2023-03-15T05:58:15.530Z,2.73
2023-03-15T05:59:15.410Z,2.74
2023-03-15T06:00:15.451Z,2.71
2023-03-15T06:01:15.269Z,2.73
2023-03-15T06:02:15.409Z,2.74
2023-03-15T06:03:15.250Z,2.73
2023-03-15T06:04:15.330Z,2.76
2023-03-15T06:05:15.278Z,2.74
2023-03-15T06:06:15.395Z,2.76
2023-03-15T06:07:15.236Z,2.76
2023-03-15T06:08:15.280Z,2.77
2023-03-15T06:09:15.212Z,2.77
2023-03-15T06:10:15.268Z,2.82
2023-03-15T06:11:15.193Z,2.84
2023-03-15T06:12:15.181Z,2.87
2023-03-15T06:13:17.852Z,2.85
2023-03-15T06:14:15.290Z,2.84
2023-03-15T06:15:15.148Z,2.87
2023-03-15T06:16:15.323Z,2.85
2023-03-15T06:17:15.121Z,2.84
2023-03-15T06:18:15.178Z,2.84
2023-03-15T06:19:15.068Z,2.85
2023-03-15T06:20:15.186Z,2.89
2023-03-15T06:21:15.053Z,2.88
2023-03-15T06:22:15.107Z,2.91
2023-03-15T06:23:15.092Z,2.91
2023-03-15T06:24:15.036Z,2.92
2023-03-15T06:25:15.180Z,2.92
2023-03-15T06:26:15.009Z,2.94
2023-03-15T06:27:14.991Z,2.92
2023-03-15T06:28:14.991Z,2.92
2023-03-15T06:29:15.145Z,2.95
2023-03-15T06:30:17.016Z,2.94
2023-03-15T06:31:15.206Z,2.92
2023-03-15T06:32:15.013Z,2.91
2023-03-15T06:33:15.024Z,2.92
2023-03-15T06:34:15.148Z,2.94
2023-03-15T06:35:15.078Z,2.95
2023-03-15T06:36:14.914Z,2.94
2023-03-15T06:37:22.712Z,2.97
2023-03-15T06:38:15.021Z,2.97
2023-03-15T06:39:14.874Z,2.97
2023-03-15T06:40:14.965Z,2.98
2023-03-15T06:41:14.983Z,2.98
2023-03-15T06:42:14.977Z,2.97
2023-03-15T06:43:14.986Z,2.97
2023-03-15T06:44:14.809Z,3.00
2023-03-15T06:45:14.962Z,2.98
2023-03-15T06:46:15.588Z,3.00
2023-03-15T06:47:14.925Z,3.00
2023-03-15T06:48:14.789Z,3.00
2023-03-15T06:49:14.815Z,3.02
2023-03-15T06:50:14.845Z,3.00
2023-03-15T06:51:14.783Z,3.05
2023-03-15T06:52:15.077Z,3.09
2023-03-15T06:53:15.069Z,3.12
2023-03-15T06:54:14.864Z,3.15
2023-03-15T06:55:14.882Z,3.18
2023-03-15T06:56:15.020Z,3.16
2023-03-15T06:57:14.862Z,3.18
2023-03-15T06:58:14.833Z,3.23
2023-03-15T06:59:14.813Z,3.18
2023-03-15T07:00:14.650Z,3.21
2023-03-15T07:01:14.862Z,3.23
2023-03-15T07:02:14.806Z,3.23
2023-03-15T07:03:14.801Z,3.20
2023-03-15T07:04:14.802Z,3.20
2023-03-15T07:05:14.621Z,3.21
2023-03-15T07:06:14.633Z,3.23
2023-03-15T07:07:14.823Z,3.24
2023-03-15T07:08:14.609Z,3.30
2023-03-15T07:09:14.711Z,3.40
2023-03-15T07:10:15.061Z,3.46
2023-03-15T07:11:15.342Z,3.52
2023-03-15T07:12:14.666Z,3.57
2023-03-15T07:13:14.747Z,3.57
2023-03-15T07:14:14.602Z,3.54
2023-03-15T07:15:17.084Z,3.58
2023-03-15T07:16:14.845Z,3.61
2023-03-15T07:17:14.515Z,3.65
2023-03-15T07:18:15.293Z,3.71
2023-03-15T07:19:14.896Z,3.78
2023-03-15T07:20:14.518Z,3.85
2023-03-15T07:21:14.666Z,3.90
2023-03-15T07:22:14.482Z,3.97
2023-03-15T07:23:14.418Z,4.10
2023-03-15T07:24:14.641Z,4.18
2023-03-15T07:25:14.573Z,4.29
2023-03-15T07:26:14.723Z,4.43
2023-03-15T07:27:16.500Z,4.46
2023-03-15T07:28:14.490Z,4.46
2023-03-15T07:29:14.405Z,4.37
2023-03-15T07:30:14.631Z,4.25
2023-03-15T07:31:14.359Z,4.33
2023-03-15T07:32:14.809Z,4.37
2023-03-15T07:33:14.457Z,4.42
2023-03-15T07:34:14.533Z,4.40
2023-03-15T07:35:14.570Z,4.40
2023-03-15T07:36:14.436Z,4.33
2023-03-15T07:37:14.299Z,4.28
2023-03-15T07:38:14.365Z,4.29
2023-03-15T07:39:14.284Z,4.24
2023-03-15T07:40:14.336Z,4.24
2023-03-15T07:41:14.348Z,4.22
2023-03-15T07:42:14.803Z,4.21
2023-03-15T07:43:14.443Z,4.21
2023-03-15T07:44:14.428Z,4.28
2023-03-15T07:45:14.495Z,4.39
2023-03-15T07:46:14.299Z,4.47
2023-03-15T07:47:14.425Z,4.55
2023-03-15T07:48:14.221Z,4.61
2023-03-15T07:49:14.195Z,4.57
2023-03-15T07:50:16.887Z,4.52
2023-03-15T07:51:14.324Z,4.47
2023-03-15T07:52:14.785Z,4.52
2023-03-15T07:53:14.153Z,4.59
2023-03-15T07:54:14.167Z,4.64
2023-03-15T07:55:14.163Z,4.52
2023-03-15T07:56:14.150Z,4.52
2023-03-15T07:57:14.152Z,4.58
2023-03-15T07:58:14.314Z,4.65
2023-03-15T07:59:14.520Z,4.75
2023-03-15T08:00:14.199Z,4.88
2023-03-15T08:01:14.158Z,4.98
2023-03-15T08:02:14.136Z,4.91
2023-03-15T08:03:14.086Z,4.89
2023-03-15T08:04:14.061Z,4.94
2023-03-15T08:05:14.219Z,4.96
2023-03-15T08:06:14.097Z,5.04
2023-03-15T08:07:14.080Z,5.19
2023-03-15T08:08:14.004Z,5.30
2023-03-15T08:09:14.079Z,5.32
2023-03-15T08:10:13.987Z,5.45
2023-03-15T08:11:14.131Z,5.92
2023-03-15T08:12:13.953Z,6.26
2023-03-15T08:13:13.948Z,6.28
2023-03-15T08:14:13.973Z,6.41
2023-03-15T08:15:13.922Z,6.58
2023-03-15T08:16:14.186Z,6.68
2023-03-15T08:17:13.955Z,6.69
2023-03-15T08:18:13.918Z,6.73
2023-03-15T08:19:13.951Z,6.79
2023-03-15T08:20:13.938Z,6.79
2023-03-15T08:21:14.003Z,6.44
2023-03-15T08:22:13.889Z,6.29
2023-03-15T08:23:14.000Z,6.32
2023-03-15T08:24:14.071Z,6.43
2023-03-15T08:25:14.024Z,6.73
2023-03-15T08:26:13.916Z,6.87
2023-03-15T08:27:14.218Z,6.86
2023-03-15T08:28:13.822Z,7.22
2023-03-15T08:29:13.814Z,7.66
2023-03-15T08:30:13.815Z,7.92
2023-03-15T08:31:13.924Z,8.00
2023-03-15T08:32:13.944Z,8.18
2023-03-15T08:33:13.972Z,8.33
2023-03-15T08:34:14.157Z,8.35
2023-03-15T08:35:15.716Z,8.20
2023-03-15T08:36:13.903Z,8.11
2023-03-15T08:37:13.849Z,7.74
2023-03-15T08:38:13.697Z,7.35
2023-03-15T08:39:13.853Z,7.35
2023-03-15T08:40:14.231Z,7.42
2023-03-15T08:41:13.740Z,7.45
2023-03-15T08:42:13.682Z,7.55
2023-03-15T08:43:13.887Z,7.38
2023-03-15T08:44:13.780Z,7.20
2023-03-15T08:45:13.973Z,7.42
2023-03-15T08:46:13.857Z,7.75
2023-03-15T08:47:13.745Z,8.10
2023-03-15T08:48:13.676Z,8.14
2023-03-15T08:49:13.766Z,8.07
2023-03-15T08:50:13.632Z,8.11
2023-03-15T08:51:13.870Z,8.00
2023-03-15T08:52:13.820Z,7.85
2023-03-15T08:53:13.972Z,7.81
2023-03-15T08:54:14.208Z,7.87
2023-03-15T08:55:13.564Z,7.74
2023-03-15T08:56:13.784Z,7.58
2023-03-15T08:57:13.560Z,7.60
2023-03-15T08:58:13.826Z,7.56
2023-03-15T08:59:19.433Z,7.60
2023-03-15T09:00:13.495Z,7.55
2023-03-15T09:01:13.500Z,7.52
2023-03-15T09:02:13.803Z,7.49
2023-03-15T09:03:13.657Z,7.44
2023-03-15T09:04:13.556Z,7.42
2023-03-15T09:05:13.609Z,7.52
2023-03-15T09:06:13.450Z,7.66
2023-03-15T09:07:13.447Z,7.78
2023-03-15T09:08:13.989Z,7.78
2023-03-15T09:09:13.490Z,7.92
2023-03-15T09:10:13.655Z,8.08
2023-03-15T09:11:13.613Z,8.28
2023-03-15T09:12:13.685Z,8.53
2023-03-15T09:13:13.396Z,8.48
2023-03-15T09:14:13.523Z,8.54
2023-03-15T09:15:13.416Z,8.48
2023-03-15T09:16:13.397Z,9.12
2023-03-15T09:17:13.408Z,9.81
2023-03-15T09:18:13.320Z,10.68
2023-03-15T09:19:13.308Z,11.34
2023-03-15T09:20:13.418Z,11.78
2023-03-15T09:21:13.306Z,11.49
2023-03-15T09:22:17.167Z,11.13
2023-03-15T09:23:13.501Z,10.62
2023-03-15T09:24:13.476Z,10.43
2023-03-15T09:25:13.364Z,10.04
2023-03-15T09:26:13.438Z,9.89
2023-03-15T09:27:13.569Z,9.67
2023-03-15T09:28:13.520Z,9.50
2023-03-15T09:29:13.482Z,9.27
2023-03-15T09:30:13.273Z,9.39
2023-03-15T09:31:13.313Z,9.73
2023-03-15T09:32:13.851Z,10.46
2023-03-15T09:33:13.300Z,11.50
2023-03-15T09:34:13.185Z,12.29
2023-03-15T09:35:13.200Z,12.96
2023-03-15T09:36:13.386Z,13.87
2023-03-15T09:37:13.166Z,14.44
2023-03-15T09:38:13.111Z,15.03
2023-03-15T09:39:13.129Z,15.15
2023-03-15T09:40:13.153Z,15.12
2023-03-15T09:41:13.167Z,13.52
2023-03-15T09:42:13.255Z,12.29
2023-03-15T09:43:13.105Z,11.35
2023-03-15T09:44:13.420Z,10.73
2023-03-15T09:45:13.227Z,10.10
2023-03-15T09:46:13.349Z,9.53
2023-03-15T09:47:13.337Z,9.27
2023-03-15T09:48:13.042Z,9.10
2023-03-15T09:49:13.063Z,9.04
2023-03-15T09:50:13.029Z,9.16
2023-03-15T09:51:13.034Z,10.44
2023-03-15T09:52:13.004Z,11.83
2023-03-15T09:53:13.383Z,13.12
2023-03-15T09:54:13.053Z,13.24
2023-03-15T09:55:13.059Z,13.36
2023-03-15T09:56:12.926Z,13.12
2023-03-15T09:57:13.359Z,13.88
2023-03-15T09:58:13.094Z,13.94
2023-03-15T09:59:13.068Z,13.76
2023-03-15T10:00:12.996Z,13.25
2023-03-15T10:01:12.993Z,12.87
2023-03-15T10:02:12.942Z,12.56
2023-03-15T10:03:13.087Z,12.44
2023-03-15T10:04:12.933Z,11.89
2023-03-15T10:05:13.163Z,12.06
2023-03-15T10:06:13.043Z,11.93
2023-03-15T10:07:13.385Z,12.66
2023-03-15T10:08:12.838Z,13.87
2023-03-15T10:09:12.811Z,14.43
2023-03-15T10:10:12.844Z,15.46
2023-03-15T10:11:12.798Z,16.50
2023-03-15T10:12:12.802Z,16.96
2023-03-15T10:13:13.026Z,16.56
2023-03-15T10:14:12.958Z,15.54
2023-03-15T10:15:12.858Z,14.93
2023-03-15T10:16:12.873Z,15.68
2023-03-15T10:17:12.761Z,16.58
2023-03-15T10:18:12.976Z,16.14
2023-03-15T10:19:12.861Z,15.63
2023-03-15T10:20:12.729Z,15.97
2023-03-15T10:21:12.717Z,16.55
2023-03-15T10:22:12.735Z,15.94
2023-03-15T10:23:12.912Z,15.09
2023-03-15T10:24:12.861Z,14.49
2023-03-15T10:25:12.744Z,13.94
2023-03-15T10:26:13.901Z,12.87
2023-03-15T10:27:12.755Z,12.31
2023-03-15T10:28:12.659Z,11.83
2023-03-15T10:29:12.790Z,11.49
2023-03-15T10:30:12.630Z,10.92
2023-03-15T10:31:18.254Z,10.59
2023-03-15T10:32:12.708Z,10.44
2023-03-15T10:33:12.749Z,10.34
2023-03-15T10:34:12.634Z,11.20
2023-03-15T10:35:12.631Z,12.92
2023-03-15T10:36:12.741Z,14.29
2023-03-15T10:37:12.645Z,14.72
2023-03-15T10:38:12.915Z,14.44
2023-03-15T10:39:12.579Z,13.59
2023-03-15T10:40:12.546Z,12.99
2023-03-15T10:41:15.238Z,12.49
2023-03-15T10:42:12.494Z,11.87
2023-03-15T10:43:12.466Z,11.41
2023-03-15T10:44:12.702Z,10.99
2023-03-15T10:45:12.478Z,11.10
2023-03-15T10:46:12.666Z,11.53
2023-03-15T10:47:23.056Z,12.95
2023-03-15T10:48:12.590Z,14.49
2023-03-15T10:49:12.740Z,15.61
2023-03-15T10:50:12.433Z,16.00
2023-03-15T10:51:12.640Z,15.41
2023-03-15T10:52:12.787Z,16.38
2023-03-15T10:53:12.523Z,17.06
2023-03-15T10:54:12.409Z,18.22
2023-03-15T10:55:12.462Z,18.25
2023-03-15T10:56:12.388Z,18.99
2023-03-15T10:57:12.365Z,20.02
2023-03-15T10:58:12.614Z,19.83
2023-03-15T10:59:13.202Z,20.12
2023-03-15T11:00:12.470Z,20.15
2023-03-15T11:01:12.354Z,20.13
2023-03-15T11:02:12.439Z,19.73
2023-03-15T11:03:12.476Z,18.52
2023-03-15T11:04:12.314Z,18.64
2023-03-15T11:05:12.485Z,18.36
2023-03-15T11:06:12.409Z,19.21
2023-03-15T11:07:12.224Z,19.68
2023-03-15T11:08:12.322Z,19.75
2023-03-15T11:09:12.283Z,18.87
2023-03-15T11:10:12.257Z,17.22
2023-03-15T11:11:12.245Z,17.26
2023-03-15T11:12:12.260Z,17.92
2023-03-15T11:13:12.281Z,19.18
2023-03-15T11:14:12.364Z,18.73
2023-03-15T11:15:12.270Z,19.60
2023-03-15T11:16:12.209Z,20.62
2023-03-15T11:17:12.205Z,21.19
2023-03-15T11:18:12.487Z,21.05
2023-03-15T11:19:12.367Z,19.51
2023-03-15T11:20:12.123Z,18.22
2023-03-15T11:21:12.348Z,17.63
2023-03-15T11:22:12.223Z,17.51
2023-03-15T11:23:12.251Z,17.54
2023-03-15T11:24:12.453Z,17.26
2023-03-15T11:25:12.118Z,18.54
2023-03-15T11:26:19.076Z,18.97
2023-03-15T11:27:12.122Z,19.75
2023-03-15T11:28:12.485Z,20.62
2023-03-15T11:29:12.014Z,20.91
2023-03-15T11:30:12.190Z,20.90
2023-03-15T11:31:12.368Z,19.94
2023-03-15T11:32:12.027Z,19.88
2023-03-15T11:33:12.137Z,20.65
2023-03-15T11:34:12.161Z,21.24
2023-03-15T11:35:12.163Z,21.75
2023-03-15T11:36:12.558Z,20.80
2023-03-15T11:37:13.162Z,19.76
2023-03-15T11:38:15.435Z,20.33
2023-03-15T11:39:12.225Z,21.42
2023-03-15T11:40:13.225Z,21.60
2023-03-15T11:41:11.977Z,21.72
2023-03-15T11:42:11.973Z,19.87
2023-03-15T11:43:12.033Z,20.38
2023-03-15T11:44:11.886Z,20.12
2023-03-15T11:45:11.903Z,20.61
2023-03-15T11:46:12.027Z,20.95
2023-03-15T11:47:11.892Z,21.81
2023-03-15T11:48:11.924Z,21.35
2023-03-15T11:49:11.958Z,20.83
2023-03-15T11:50:11.973Z,20.30
2023-03-15T11:51:11.951Z,18.19
2023-03-15T11:52:12.076Z,17.89
2023-03-15T11:53:11.871Z,18.47
2023-03-15T11:54:12.232Z,19.01
2023-03-15T11:55:11.995Z,18.68
2023-03-15T11:56:11.889Z,17.84
2023-03-15T11:57:11.833Z,17.06
2023-03-15T11:58:12.149Z,16.65
2023-03-15T11:59:11.750Z,16.40
2023-03-15T12:00:11.834Z,16.75
2023-03-15T12:01:11.771Z,18.10
2023-03-15T12:02:11.793Z,17.97
2023-03-15T12:03:11.760Z,17.32
2023-03-15T12:04:11.764Z,16.41
2023-03-15T12:05:18.067Z,16.41
2023-03-15T12:06:12.103Z,16.45
2023-03-15T12:07:11.819Z,14.90
2023-03-15T12:08:11.856Z,14.20
2023-03-15T12:09:11.696Z,15.28
2023-03-15T12:10:11.776Z,16.98
2023-03-15T12:11:11.854Z,17.47
2023-03-15T12:12:12.270Z,18.37
2023-03-15T12:13:11.790Z,18.97
2023-03-15T12:14:11.613Z,17.81
2023-03-15T12:15:11.837Z,16.83
2023-03-15T12:16:11.684Z,15.86
2023-03-15T12:17:11.754Z,16.42
2023-03-15T12:18:12.124Z,16.83
2023-03-15T12:19:11.576Z,18.34
2023-03-15T12:20:11.798Z,19.50
2023-03-15T12:21:11.789Z,20.28
2023-03-15T12:22:11.771Z,20.86
2023-03-15T12:23:11.768Z,20.31
2023-03-15T12:24:11.760Z,20.24
2023-03-15T12:25:11.735Z,19.32
2023-03-15T12:26:11.547Z,17.51
2023-03-15T12:27:11.504Z,16.14
2023-03-15T12:28:12.001Z,14.95
2023-03-15T12:29:11.648Z,14.31
2023-03-15T12:30:11.554Z,13.92
2023-03-15T12:31:11.594Z,13.59
2023-03-15T12:32:11.873Z,14.25
2023-03-15T12:33:11.429Z,15.17
2023-03-15T12:34:11.698Z,16.60
2023-03-15T12:35:12.397Z,17.73
2023-03-15T12:36:11.739Z,18.65
2023-03-15T12:37:11.487Z,18.12
2023-03-15T12:38:11.595Z,18.79
2023-03-15T12:39:11.760Z,19.60
2023-03-15T12:40:11.413Z,19.88
2023-03-15T12:41:11.473Z,20.27
2023-03-15T12:42:11.657Z,19.50
2023-03-15T12:43:11.438Z,17.73
2023-03-15T12:44:11.440Z,15.93
2023-03-15T12:45:11.510Z,14.53
2023-03-15T12:46:11.484Z,13.37
2023-03-15T12:47:11.883Z,12.63
2023-03-15T12:48:11.353Z,12.26
2023-03-15T12:49:11.271Z,12.69
2023-03-15T12:50:11.467Z,14.42
2023-03-15T12:51:11.279Z,16.33
2023-03-15T12:52:11.821Z,17.10
2023-03-15T12:53:11.450Z,18.06
2023-03-15T12:54:11.233Z,18.59
2023-03-15T12:55:11.207Z,19.13
2023-03-15T12:56:11.173Z,19.31
2023-03-15T12:57:11.427Z,19.35
2023-03-15T12:58:11.194Z,18.47
2023-03-15T12:59:11.148Z,16.85
2023-03-15T13:00:11.182Z,15.52
2023-03-15T13:01:11.202Z,14.61
2023-03-15T13:02:11.159Z,13.80
2023-03-15T13:03:11.143Z,13.06
2023-03-15T13:04:11.144Z,12.45
2023-03-15T13:05:11.125Z,12.08
2023-03-15T13:06:11.095Z,11.75
2023-03-15T13:07:11.519Z,11.54
2023-03-15T13:08:11.142Z,11.39
2023-03-15T13:09:11.094Z,11.02
2023-03-15T13:10:11.361Z,11.06
2023-03-15T13:11:11.457Z,11.19